Rhodanus — PGBC — position and weather

sailwx.info

Track history (hours):
 
Tides and Currents Weather Stations Pressure Air Temp Water Temp Dewpoint Dewpoint Depression Visibility Wind Speed Wind Dir Waves Ship Positions

Rhodanus

Last reported at 2014-Jul-23 03:11 UTC. Time now 2014-Jul-24 01:52 UTC.
Position N 36°04' W 007°02'.

Length 89 m; draft 3.3 m.

Type: Cargo ship. MMSI: 245848000.

Date/timePositionNaut miles runAvg speedWind from/ knotsBaromVisibWave heightAir tempDewpointWater temp
2014-Jul-23 03:11N 36°04' W 007°02'6 9.9
2014-Jul-23 02:33N 36°06' W 007°10'10 9.9
2014-Jul-23 01:33N 36°08' W 007°21'1010.1
2014-Jul-23 00:33N 36°11' W 007°34'1010.4
2014-Jul-22 23:33N 36°14' W 007°46'1010.0
2014-Jul-22 22:33N 36°16' W 007°58'1010.2
2014-Jul-22 21:33N 36°19' W 008°10'1010.4
2014-Jul-22 20:33N 36°22' W 008°23'1010.3
2014-Jul-22 19:33N 36°24' W 008°35'1010.2
2014-Jul-22 18:33N 36°27' W 008°47'1010.1
2014-Jul-22 17:33N 36°29' W 008°59'1010.3
2014-Jul-22 16:33N 36°32' W 009°12'1010.3
2014-Jul-22 15:33N 36°38' W 009°22'1110.5
2014-Jul-22 14:32N 36°46' W 009°31'1010.6
2014-Jul-22 13:33N 36°56' W 009°35'1110.4
2014-Jul-22 12:30N 37°06' W 009°38'1110.3
2014-Jul-22 11:28N 37°17' W 009°41'1010.5
2014-Jul-22 10:33N 37°26' W 009°44'1110.5
2014-Jul-22 09:31N 37°37' W 009°47'1010.5
2014-Jul-22 08:33N 37°47' W 009°50'1010.4
2014-Jul-22 07:33N 37°57' W 009°53'1010.2
2014-Jul-22 06:32N 38°07' W 009°56'1310.7
2014-Jul-22 05:22N 38°19' W 009°59'  
2014-Jul-18 17:33N 50°14' W 001°26'68 9.7
2014-Jul-18 10:30N 50°32' E 000°17'1111.0
2014-Jul-18 09:33N 50°35' E 000°33'1111.6
2014-Jul-18 08:33N 50°41' E 000°49'1211.4
2014-Jul-18 07:31N 50°48' E 001°04'1410.1
2014-Jul-18 06:10N 50°56' E 001°20'5 8.7
2014-Jul-18 05:33N 51°00' E 001°26'8 7.6
2014-Jul-18 04:33N 51°06' E 001°34'7 7.4
2014-Jul-18 03:33N 51°11' E 001°43'9 9.0
2014-Jul-18 02:34N 51°18' E 001°51'1111.1
2014-Jul-18 01:33N 51°28' E 002°01'1312.4
2014-Jul-18 00:33N 51°37' E 002°15'1212.6
2014-Jul-17 23:33N 51°46' E 002°28'1411.9
2014-Jul-17 22:24N 51°56' E 002°43'1010.6
2014-Jul-17 21:30N 52°01' E 002°57'1010.7
2014-Jul-17 20:33N 52°03' E 003°13'1010.3
2014-Jul-17 19:33N 52°03' E 003°30'10 9.8
2014-Jul-17 18:33N 52°03' E 003°46'9 8.9
2014-Jul-17 17:33N 52°01' E 003°60'1010.3
2014-Jul-17 16:33N 51°55' E 004°14'6 5.3
2014-Jul-17 15:31N 51°54' E 004°23'0 0.0
2014-Jul-17 14:31N 51°54' E 004°23'0 0.0
2014-Jul-17 13:31N 51°54' E 004°23'0 0.0
2014-Jul-17 12:28N 51°54' E 004°23'0 0.0
2014-Jul-17 11:28N 51°54' E 004°23'0 0.0
2014-Jul-17 10:31N 51°54' E 004°23'0 0.0
2014-Jul-17 09:28N 51°54' E 004°23'0 0.0
2014-Jul-17 08:28N 51°54' E 004°23'0 0.0
2014-Jul-17 07:28N 51°54' E 004°23'0 0.0
2014-Jul-17 06:31N 51°54' E 004°23'2 1.7
2014-Jul-17 05:33N 51°53' E 004°25'0 0.4
2014-Jul-17 04:33N 51°53' E 004°25'0 0.0
2014-Jul-17 03:31N 51°53' E 004°25'0 0.0
2014-Jul-17 02:31N 51°53' E 004°25'0 0.0
2014-Jul-17 01:31N 51°53' E 004°25'0 0.0
2014-Jul-17 00:31N 51°53' E 004°25'0 0.0
2014-Jul-16 23:28N 51°53' E 004°25'0 0.0
2014-Jul-16 22:22N 51°53' E 004°25'0 0.0
2014-Jul-16 21:31N 51°53' E 004°25'0 0.0
2014-Jul-16 20:28N 51°53' E 004°25'0 0.0
2014-Jul-16 19:22N 51°53' E 004°25'0 0.0
2014-Jul-16 18:28N 51°53' E 004°25'0 0.0
2014-Jul-16 17:25N 51°53' E 004°25'0 0.0
2014-Jul-16 16:28N 51°53' E 004°25'0 0.0
2014-Jul-16 15:07N 51°53' E 004°25'0 0.0
2014-Jul-16 14:31N 51°53' E 004°25'0 0.0
2014-Jul-16 13:13N 51°53' E 004°25'0 0.0
2014-Jul-16 12:25N 51°53' E 004°25'0 0.0
2014-Jul-16 11:28N 51°53' E 004°25'0 0.0
2014-Jul-16 10:22N 51°53' E 004°25'0 0.0
2014-Jul-16 09:22N 51°53' E 004°25'0 0.0
2014-Jul-16 08:28N 51°53' E 004°25'0 0.0
2014-Jul-16 07:31N 51°53' E 004°25'0 0.0
2014-Jul-16 06:22N 51°53' E 004°25'0 0.0
2014-Jul-16 05:31N 51°53' E 004°25'0 0.0
2014-Jul-16 04:31N 51°53' E 004°25'0 0.0
2014-Jul-16 02:31N 51°53' E 004°25'0 0.0
2014-Jul-16 01:28N 51°53' E 004°25'0 0.0
2014-Jul-16 00:31N 51°53' E 004°25'0 0.0
2014-Jul-15 23:31N 51°53' E 004°25'0 0.0
2014-Jul-15 22:28N 51°53' E 004°25'0 0.0
2014-Jul-15 21:28N 51°53' E 004°25'0 0.0
2014-Jul-15 20:31N 51°53' E 004°25'0 0.0
2014-Jul-15 19:22N 51°53' E 004°25'0 0.0
2014-Jul-15 18:28N 51°53' E 004°25'0 0.0
2014-Jul-15 17:33N 51°53' E 004°25'7 6.8
2014-Jul-15 16:33N 51°55' E 004°15'1211.5
2014-Jul-15 15:33N 52°00' E 003°58'10 9.8
2014-Jul-15 14:30N 52°03' E 003°42'1010.5
2014-Jul-15 13:33N 52°09' E 003°29'7811.1
2014-Jul-15 06:33N 52°52' E 001°43'1110.9
2014-Jul-15 05:33N 52°58' E 001°28'10 9.8
2014-Jul-15 04:33N 53°03' E 001°14'36 8.9
2014-Jul-15 00:33N 53°25' E 000°27'9 9.2
2014-Jul-14 23:33N 53°32' E 000°16'1212.5
2014-Jul-14 22:33N 53°36' W 000°03'1312.7
2014-Jul-14 21:33N 53°43' W 000°21'  
Track history (hours):
 
Tides and Currents Weather Stations Pressure Air Temp Water Temp Dewpoint Dewpoint Depression Visibility Wind Speed Wind Dir Waves Ship Positions

Rhodanus

Last reported at 2014-Jul-23 03:11 UTC. Time now 2014-Jul-24 01:52 UTC.
Position N 36°04' W 007°02'.

Length 89 m; draft 3.3 m.

Type: Cargo ship. MMSI: 245848000.

Date/timePositionNaut miles runAvg speedWind from/ knotsBaromVisibWave heightAir tempDewpointWater temp
2014-Jul-23 03:11N 36°04' W 007°02'6 9.9
2014-Jul-23 02:33N 36°06' W 007°10'10 9.9
2014-Jul-23 01:33N 36°08' W 007°21'1010.1
2014-Jul-23 00:33N 36°11' W 007°34'1010.4
2014-Jul-22 23:33N 36°14' W 007°46'1010.0
2014-Jul-22 22:33N 36°16' W 007°58'1010.2
2014-Jul-22 21:33N 36°19' W 008°10'1010.4
2014-Jul-22 20:33N 36°22' W 008°23'1010.3
2014-Jul-22 19:33N 36°24' W 008°35'1010.2
2014-Jul-22 18:33N 36°27' W 008°47'1010.1
2014-Jul-22 17:33N 36°29' W 008°59'1010.3
2014-Jul-22 16:33N 36°32' W 009°12'1010.3
2014-Jul-22 15:33N 36°38' W 009°22'1110.5
2014-Jul-22 14:32N 36°46' W 009°31'1010.6
2014-Jul-22 13:33N 36°56' W 009°35'1110.4
2014-Jul-22 12:30N 37°06' W 009°38'1110.3
2014-Jul-22 11:28N 37°17' W 009°41'1010.5
2014-Jul-22 10:33N 37°26' W 009°44'1110.5
2014-Jul-22 09:31N 37°37' W 009°47'1010.5
2014-Jul-22 08:33N 37°47' W 009°50'1010.4
2014-Jul-22 07:33N 37°57' W 009°53'1010.2
2014-Jul-22 06:32N 38°07' W 009°56'1310.7
2014-Jul-22 05:22N 38°19' W 009°59'  
2014-Jul-18 17:33N 50°14' W 001°26'68 9.7
2014-Jul-18 10:30N 50°32' E 000°17'1111.0
2014-Jul-18 09:33N 50°35' E 000°33'1111.6
2014-Jul-18 08:33N 50°41' E 000°49'1211.4
2014-Jul-18 07:31N 50°48' E 001°04'1410.1
2014-Jul-18 06:10N 50°56' E 001°20'5 8.7
2014-Jul-18 05:33N 51°00' E 001°26'8 7.6
2014-Jul-18 04:33N 51°06' E 001°34'7 7.4
2014-Jul-18 03:33N 51°11' E 001°43'9 9.0
2014-Jul-18 02:34N 51°18' E 001°51'1111.1
2014-Jul-18 01:33N 51°28' E 002°01'1312.4
2014-Jul-18 00:33N 51°37' E 002°15'1212.6
2014-Jul-17 23:33N 51°46' E 002°28'1411.9
2014-Jul-17 22:24N 51°56' E 002°43'1010.6
2014-Jul-17 21:30N 52°01' E 002°57'1010.7
2014-Jul-17 20:33N 52°03' E 003°13'1010.3
2014-Jul-17 19:33N 52°03' E 003°30'10 9.8
2014-Jul-17 18:33N 52°03' E 003°46'9 8.9
2014-Jul-17 17:33N 52°01' E 003°60'1010.3
2014-Jul-17 16:33N 51°55' E 004°14'6 5.3
2014-Jul-17 15:31N 51°54' E 004°23'0 0.0
2014-Jul-17 14:31N 51°54' E 004°23'0 0.0
2014-Jul-17 13:31N 51°54' E 004°23'0 0.0
2014-Jul-17 12:28N 51°54' E 004°23'0 0.0
2014-Jul-17 11:28N 51°54' E 004°23'0 0.0
2014-Jul-17 10:31N 51°54' E 004°23'0 0.0
2014-Jul-17 09:28N 51°54' E 004°23'0 0.0
2014-Jul-17 08:28N 51°54' E 004°23'0 0.0
2014-Jul-17 07:28N 51°54' E 004°23'0 0.0
2014-Jul-17 06:31N 51°54' E 004°23'2 1.7
2014-Jul-17 05:33N 51°53' E 004°25'0 0.4
2014-Jul-17 04:33N 51°53' E 004°25'0 0.0
2014-Jul-17 03:31N 51°53' E 004°25'0 0.0
2014-Jul-17 02:31N 51°53' E 004°25'0 0.0
2014-Jul-17 01:31N 51°53' E 004°25'0 0.0
2014-Jul-17 00:31N 51°53' E 004°25'0 0.0
2014-Jul-16 23:28N 51°53' E 004°25'0 0.0
2014-Jul-16 22:22N 51°53' E 004°25'0 0.0
2014-Jul-16 21:31N 51°53' E 004°25'0 0.0
2014-Jul-16 20:28N 51°53' E 004°25'0 0.0
2014-Jul-16 19:22N 51°53' E 004°25'0 0.0
2014-Jul-16 18:28N 51°53' E 004°25'0 0.0
2014-Jul-16 17:25N 51°53' E 004°25'0 0.0
2014-Jul-16 16:28N 51°53' E 004°25'0 0.0
2014-Jul-16 15:07N 51°53' E 004°25'0 0.0
2014-Jul-16 14:31N 51°53' E 004°25'0 0.0
2014-Jul-16 13:13N 51°53' E 004°25'0 0.0
2014-Jul-16 12:25N 51°53' E 004°25'0 0.0
2014-Jul-16 11:28N 51°53' E 004°25'0 0.0
2014-Jul-16 10:22N 51°53' E 004°25'0 0.0
2014-Jul-16 09:22N 51°53' E 004°25'0 0.0
2014-Jul-16 08:28N 51°53' E 004°25'0 0.0
2014-Jul-16 07:31N 51°53' E 004°25'0 0.0
2014-Jul-16 06:22N 51°53' E 004°25'0 0.0
2014-Jul-16 05:31N 51°53' E 004°25'0 0.0
2014-Jul-16 04:31N 51°53' E 004°25'0 0.0
2014-Jul-16 02:31N 51°53' E 004°25'0 0.0
2014-Jul-16 01:28N 51°53' E 004°25'0 0.0
2014-Jul-16 00:31N 51°53' E 004°25'0 0.0
2014-Jul-15 23:31N 51°53' E 004°25'0 0.0
2014-Jul-15 22:28N 51°53' E 004°25'0 0.0
2014-Jul-15 21:28N 51°53' E 004°25'0 0.0
2014-Jul-15 20:31N 51°53' E 004°25'0 0.0
2014-Jul-15 19:22N 51°53' E 004°25'0 0.0
2014-Jul-15 18:28N 51°53' E 004°25'0 0.0
2014-Jul-15 17:33N 51°53' E 004°25'7 6.8
2014-Jul-15 16:33N 51°55' E 004°15'1211.5
2014-Jul-15 15:33N 52°00' E 003°58'10 9.8
2014-Jul-15 14:30N 52°03' E 003°42'1010.5
2014-Jul-15 13:33N 52°09' E 003°29'7811.1
2014-Jul-15 06:33N 52°52' E 001°43'1110.9
2014-Jul-15 05:33N 52°58' E 001°28'10 9.8
2014-Jul-15 04:33N 53°03' E 001°14'36 8.9
2014-Jul-15 00:33N 53°25' E 000°27'9 9.2
2014-Jul-14 23:33N 53°32' E 000°16'1212.5
2014-Jul-14 22:33N 53°36' W 000°03'1312.7
2014-Jul-14 21:33N 53°43' W 000°21'  

Dump ship's entire track history